sensor_id;sensor_type;location;lat;lon;timestamp;P1;durP1;ratioP1;P2;durP2;ratioP2
44098;SDS011;29762;50.086;14.364;2023-04-03T00:01:17;1.58;;;1.00;;
44098;SDS011;29762;50.086;14.364;2023-04-03T00:06:37;0.95;;;0.88;;
44098;SDS011;29762;50.086;14.364;2023-04-03T00:11:56;1.70;;;1.00;;
44098;SDS011;29762;50.086;14.364;2023-04-03T00:17:16;2.40;;;1.10;;
44098;SDS011;29762;50.086;14.364;2023-04-03T00:22:35;1.35;;;1.00;;
44098;SDS011;29762;50.086;14.364;2023-04-03T00:27:55;1.65;;;0.90;;
44098;SDS011;29762;50.086;14.364;2023-04-03T00:33:14;1.45;;;0.90;;
44098;SDS011;29762;50.086;14.364;2023-04-03T00:38:34;1.02;;;0.80;;
44098;SDS011;29762;50.086;14.364;2023-04-03T00:43:53;3.90;;;1.00;;
44098;SDS011;29762;50.086;14.364;2023-04-03T00:49:13;0.95;;;0.75;;
44098;SDS011;29762;50.086;14.364;2023-04-03T00:54:32;1.85;;;0.93;;
44098;SDS011;29762;50.086;14.364;2023-04-03T00:59:55;0.88;;;0.80;;
44098;SDS011;29762;50.086;14.364;2023-04-03T01:05:17;1.05;;;0.70;;
44098;SDS011;29762;50.086;14.364;2023-04-03T01:10:37;1.00;;;0.80;;
44098;SDS011;29762;50.086;14.364;2023-04-03T01:16:00;1.05;;;0.80;;
44098;SDS011;29762;50.086;14.364;2023-04-03T01:27:12;1.00;;;0.80;;
44098;SDS011;29762;50.086;14.364;2023-04-03T01:32:32;0.82;;;0.82;;
44098;SDS011;29762;50.086;14.364;2023-04-03T01:37:52;0.65;;;0.65;;
44098;SDS011;29762;50.086;14.364;2023-04-03T01:43:11;0.70;;;0.70;;
44098;SDS011;29762;50.086;14.364;2023-04-03T01:48:31;0.80;;;0.80;;
44098;SDS011;29762;50.086;14.364;2023-04-03T01:53:50;1.10;;;0.80;;
44098;SDS011;29762;50.086;14.364;2023-04-03T01:59:11;1.08;;;0.88;;
44098;SDS011;29762;50.086;14.364;2023-04-03T02:04:31;0.85;;;0.77;;
44098;SDS011;29762;50.086;14.364;2023-04-03T02:09:50;1.05;;;0.70;;
44098;SDS011;29762;50.086;14.364;2023-04-03T02:15:10;0.77;;;0.70;;
44098;SDS011;29762;50.086;14.364;2023-04-03T02:20:30;1.10;;;0.80;;
44098;SDS011;29762;50.086;14.364;2023-04-03T02:25:50;0.80;;;0.80;;
44098;SDS011;29762;50.086;14.364;2023-04-03T02:31:10;0.88;;;0.63;;
44098;SDS011;29762;50.086;14.364;2023-04-03T02:36:31;1.00;;;0.80;;
44098;SDS011;29762;50.086;14.364;2023-04-03T02:41:54;0.90;;;0.68;;
44098;SDS011;29762;50.086;14.364;2023-04-03T02:47:16;0.63;;;0.63;;
44098;SDS011;29762;50.086;14.364;2023-04-03T02:52:36;1.35;;;0.80;;
44098;SDS011;29762;50.086;14.364;2023-04-03T02:57:56;0.95;;;0.80;;
44098;SDS011;29762;50.086;14.364;2023-04-03T03:03:16;0.80;;;0.70;;
44098;SDS011;29762;50.086;14.364;2023-04-03T03:08:36;0.70;;;0.70;;
44098;SDS011;29762;50.086;14.364;2023-04-03T03:13:55;0.60;;;0.60;;
44098;SDS011;29762;50.086;14.364;2023-04-03T03:19:17;1.42;;;0.80;;
44098;SDS011;29762;50.086;14.364;2023-04-03T03:24:36;0.82;;;0.70;;
44098;SDS011;29762;50.086;14.364;2023-04-03T03:29:56;0.60;;;0.60;;
44098;SDS011;29762;50.086;14.364;2023-04-03T03:35:15;0.75;;;0.70;;
44098;SDS011;29762;50.086;14.364;2023-04-03T03:40:35;0.70;;;0.70;;
44098;SDS011;29762;50.086;14.364;2023-04-03T03:45:54;0.80;;;0.60;;
44098;SDS011;29762;50.086;14.364;2023-04-03T03:51:16;0.70;;;0.70;;
44098;SDS011;29762;50.086;14.364;2023-04-03T03:56:36;0.93;;;0.63;;
44098;SDS011;29762;50.086;14.364;2023-04-03T04:01:56;0.60;;;0.52;;
44098;SDS011;29762;50.086;14.364;2023-04-03T04:07:16;0.70;;;0.70;;
44098;SDS011;29762;50.086;14.364;2023-04-03T04:12:36;1.05;;;0.70;;
44098;SDS011;29762;50.086;14.364;2023-04-03T04:17:56;0.85;;;0.70;;
44098;SDS011;29762;50.086;14.364;2023-04-03T04:23:17;0.82;;;0.70;;
44098;SDS011;29762;50.086;14.364;2023-04-03T04:28:37;0.75;;;0.70;;
44098;SDS011;29762;50.086;14.364;2023-04-03T04:33:58;0.75;;;0.70;;
44098;SDS011;29762;50.086;14.364;2023-04-03T04:39:18;0.68;;;0.60;;
44098;SDS011;29762;50.086;14.364;2023-04-03T04:44:38;0.88;;;0.70;;
44098;SDS011;29762;50.086;14.364;2023-04-03T04:49:58;1.05;;;0.88;;
44098;SDS011;29762;50.086;14.364;2023-04-03T04:55:19;1.27;;;0.70;;
44098;SDS011;29762;50.086;14.364;2023-04-03T05:00:39;1.55;;;0.43;;
44098;SDS011;29762;50.086;14.364;2023-04-03T05:05:59;1.88;;;1.20;;
44098;SDS011;29762;50.086;14.364;2023-04-03T05:11:19;1.92;;;1.25;;
44098;SDS011;29762;50.086;14.364;2023-04-03T05:16:42;2.03;;;1.20;;
44098;SDS011;29762;50.086;14.364;2023-04-03T05:22:02;6.47;;;2.50;;
44098;SDS011;29762;50.086;14.364;2023-04-03T05:27:22;3.67;;;2.08;;
44098;SDS011;29762;50.086;14.364;2023-04-03T05:32:47;4.53;;;2.10;;
44098;SDS011;29762;50.086;14.364;2023-04-03T05:38:23;6.38;;;2.53;;
44098;SDS011;29762;50.086;14.364;2023-04-03T05:43:43;4.90;;;2.17;;
44098;SDS011;29762;50.086;14.364;2023-04-03T05:49:03;5.93;;;2.75;;
44098;SDS011;29762;50.086;14.364;2023-04-03T05:54:26;4.80;;;2.38;;
44098;SDS011;29762;50.086;14.364;2023-04-03T06:00:01;5.13;;;2.30;;
44098;SDS011;29762;50.086;14.364;2023-04-03T06:05:23;5.30;;;2.30;;
44098;SDS011;29762;50.086;14.364;2023-04-03T06:10:43;5.18;;;2.45;;
44098;SDS011;29762;50.086;14.364;2023-04-03T06:16:03;4.68;;;2.30;;
44098;SDS011;29762;50.086;14.364;2023-04-03T06:21:23;5.55;;;2.60;;
44098;SDS011;29762;50.086;14.364;2023-04-03T06:26:45;4.30;;;2.33;;
44098;SDS011;29762;50.086;14.364;2023-04-03T06:32:05;4.03;;;2.28;;
44098;SDS011;29762;50.086;14.364;2023-04-03T06:37:25;5.13;;;2.50;;
44098;SDS011;29762;50.086;14.364;2023-04-03T06:42:45;5.25;;;2.20;;
44098;SDS011;29762;50.086;14.364;2023-04-03T06:48:05;4.95;;;2.10;;
44098;SDS011;29762;50.086;14.364;2023-04-03T06:53:25;5.18;;;2.17;;
44098;SDS011;29762;50.086;14.364;2023-04-03T06:58:45;4.82;;;2.28;;
44098;SDS011;29762;50.086;14.364;2023-04-03T07:04:05;4.18;;;2.08;;
44098;SDS011;29762;50.086;14.364;2023-04-03T07:09:25;5.55;;;1.85;;
44098;SDS011;29762;50.086;14.364;2023-04-03T07:14:45;5.40;;;2.63;;
44098;SDS011;29762;50.086;14.364;2023-04-03T07:20:05;4.72;;;2.30;;
44098;SDS011;29762;50.086;14.364;2023-04-03T07:25:25;4.68;;;2.00;;
44098;SDS011;29762;50.086;14.364;2023-04-03T07:30:46;4.57;;;2.17;;
44098;SDS011;29762;50.086;14.364;2023-04-03T07:36:11;2.50;;;1.63;;
44098;SDS011;29762;50.086;14.364;2023-04-03T07:41:34;4.20;;;2.00;;
44098;SDS011;29762;50.086;14.364;2023-04-03T07:46:53;4.05;;;2.15;;
44098;SDS011;29762;50.086;14.364;2023-04-03T07:52:15;9.30;;;2.40;;
44098;SDS011;29762;50.086;14.364;2023-04-03T07:57:34;5.15;;;1.90;;
44098;SDS011;29762;50.086;14.364;2023-04-03T08:02:54;4.80;;;2.00;;
44098;SDS011;29762;50.086;14.364;2023-04-03T08:08:19;3.70;;;2.03;;
44098;SDS011;29762;50.086;14.364;2023-04-03T08:13:40;3.30;;;1.92;;
44098;SDS011;29762;50.086;14.364;2023-04-03T08:19:01;3.00;;;1.88;;
44098;SDS011;29762;50.086;14.364;2023-04-03T08:24:20;3.00;;;2.00;;
44098;SDS011;29762;50.086;14.364;2023-04-03T08:29:40;2.55;;;1.75;;
44098;SDS011;29762;50.086;14.364;2023-04-03T08:35:00;3.92;;;2.00;;
44098;SDS011;29762;50.086;14.364;2023-04-03T08:40:19;3.33;;;1.83;;
44098;SDS011;29762;50.086;14.364;2023-04-03T08:45:47;3.65;;;1.80;;
44098;SDS011;29762;50.086;14.364;2023-04-03T08:51:14;4.93;;;1.70;;
44098;SDS011;29762;50.086;14.364;2023-04-03T08:56:34;2.60;;;1.63;;
44098;SDS011;29762;50.086;14.364;2023-04-03T09:01:55;2.72;;;1.38;;
44098;SDS011;29762;50.086;14.364;2023-04-03T09:07:59;3.15;;;1.42;;
44098;SDS011;29762;50.086;14.364;2023-04-03T09:18:45;2.63;;;1.55;;
44098;SDS011;29762;50.086;14.364;2023-04-03T09:24:10;2.25;;;1.50;;
44098;SDS011;29762;50.086;14.364;2023-04-03T09:29:32;2.42;;;1.25;;
44098;SDS011;29762;50.086;14.364;2023-04-03T09:34:57;3.40;;;1.42;;
44098;SDS011;29762;50.086;14.364;2023-04-03T09:40:38;3.53;;;1.52;;
44098;SDS011;29762;50.086;14.364;2023-04-03T09:46:16;4.00;;;1.30;;
44098;SDS011;29762;50.086;14.364;2023-04-03T09:51:37;4.13;;;1.70;;
44098;SDS011;29762;50.086;14.364;2023-04-03T09:56:57;3.65;;;1.55;;
44098;SDS011;29762;50.086;14.364;2023-04-03T10:02:32;3.00;;;1.40;;
44098;SDS011;29762;50.086;14.364;2023-04-03T10:13:32;3.17;;;1.70;;
44098;SDS011;29762;50.086;14.364;2023-04-03T10:18:54;3.38;;;1.38;;
44098;SDS011;29762;50.086;14.364;2023-04-03T10:24:28;4.95;;;1.50;;
44098;SDS011;29762;50.086;14.364;2023-04-03T10:29:58;6.60;;;1.50;;
44098;SDS011;29762;50.086;14.364;2023-04-03T10:41:02;2.10;;;1.17;;
44098;SDS011;29762;50.086;14.364;2023-04-03T10:46:37;3.20;;;1.42;;
44098;SDS011;29762;50.086;14.364;2023-04-03T10:57:35;2.00;;;1.33;;
44098;SDS011;29762;50.086;14.364;2023-04-03T11:02:59;1.85;;;1.15;;
44098;SDS011;29762;50.086;14.364;2023-04-03T11:08:27;3.13;;;1.35;;
44098;SDS011;29762;50.086;14.364;2023-04-03T11:14:20;2.50;;;1.20;;
44098;SDS011;29762;50.086;14.364;2023-04-03T11:25:19;2.65;;;1.10;;
44098;SDS011;29762;50.086;14.364;2023-04-03T11:36:41;3.27;;;1.20;;
44098;SDS011;29762;50.086;14.364;2023-04-03T11:47:46;2.65;;;1.10;;
44098;SDS011;29762;50.086;14.364;2023-04-03T12:04:37;2.47;;;1.13;;
44098;SDS011;29762;50.086;14.364;2023-04-03T12:09:57;2.35;;;1.00;;
44098;SDS011;29762;50.086;14.364;2023-04-03T12:15:25;2.30;;;1.10;;
44098;SDS011;29762;50.086;14.364;2023-04-03T12:21:00;2.65;;;1.30;;
44098;SDS011;29762;50.086;14.364;2023-04-03T12:26:22;2.40;;;0.90;;
44098;SDS011;29762;50.086;14.364;2023-04-03T12:31:55;2.38;;;1.20;;
44098;SDS011;29762;50.086;14.364;2023-04-03T12:48:22;4.55;;;1.42;;
44098;SDS011;29762;50.086;14.364;2023-04-03T12:53:45;2.08;;;1.02;;
44098;SDS011;29762;50.086;14.364;2023-04-03T12:59:21;2.10;;;1.10;;
44098;SDS011;29762;50.086;14.364;2023-04-03T13:04:43;1.70;;;1.20;;
44098;SDS011;29762;50.086;14.364;2023-04-03T13:15:28;1.85;;;1.17;;
44098;SDS011;29762;50.086;14.364;2023-04-03T13:20:49;1.60;;;1.08;;
44098;SDS011;29762;50.086;14.364;2023-04-03T13:26:09;1.92;;;1.10;;
44098;SDS011;29762;50.086;14.364;2023-04-03T13:31:36;2.10;;;1.20;;
44098;SDS011;29762;50.086;14.364;2023-04-03T13:36:58;1.67;;;1.00;;
44098;SDS011;29762;50.086;14.364;2023-04-03T13:42:26;1.83;;;0.98;;
44098;SDS011;29762;50.086;14.364;2023-04-03T13:47:49;3.65;;;1.20;;
44098;SDS011;29762;50.086;14.364;2023-04-03T13:53:11;3.22;;;1.00;;
44098;SDS011;29762;50.086;14.364;2023-04-03T13:58:32;3.80;;;1.00;;
44098;SDS011;29762;50.086;14.364;2023-04-03T14:09:17;3.55;;;1.10;;
44098;SDS011;29762;50.086;14.364;2023-04-03T14:14:38;4.75;;;1.10;;
44098;SDS011;29762;50.086;14.364;2023-04-03T14:19:58;2.35;;;1.17;;
44098;SDS011;29762;50.086;14.364;2023-04-03T14:25:18;3.97;;;1.10;;
44098;SDS011;29762;50.086;14.364;2023-04-03T14:30:38;2.60;;;0.98;;
44098;SDS011;29762;50.086;14.364;2023-04-03T14:35:58;1.63;;;1.02;;
44098;SDS011;29762;50.086;14.364;2023-04-03T14:41:18;1.73;;;0.70;;
44098;SDS011;29762;50.086;14.364;2023-04-03T14:46:41;1.88;;;1.05;;
44098;SDS011;29762;50.086;14.364;2023-04-03T14:52:02;1.35;;;0.90;;
44098;SDS011;29762;50.086;14.364;2023-04-03T14:57:24;4.45;;;0.93;;
44098;SDS011;29762;50.086;14.364;2023-04-03T15:02:45;1.13;;;0.80;;
44098;SDS011;29762;50.086;14.364;2023-04-03T15:08:08;2.20;;;0.90;;
44098;SDS011;29762;50.086;14.364;2023-04-03T15:13:43;2.00;;;0.80;;
44098;SDS011;29762;50.086;14.364;2023-04-03T15:19:03;3.80;;;0.80;;
44098;SDS011;29762;50.086;14.364;2023-04-03T15:24:22;1.33;;;0.98;;
44098;SDS011;29762;50.086;14.364;2023-04-03T15:29:43;6.97;;;1.13;;
44098;SDS011;29762;50.086;14.364;2023-04-03T15:35:04;1.95;;;0.88;;
44098;SDS011;29762;50.086;14.364;2023-04-03T15:40:24;4.65;;;1.00;;
44098;SDS011;29762;50.086;14.364;2023-04-03T15:45:44;2.42;;;1.02;;
44098;SDS011;29762;50.086;14.364;2023-04-03T15:51:05;2.47;;;0.77;;
44098;SDS011;29762;50.086;14.364;2023-04-03T15:56:25;6.22;;;1.05;;
44098;SDS011;29762;50.086;14.364;2023-04-03T16:01:44;11.20;;;0.90;;
44098;SDS011;29762;50.086;14.364;2023-04-03T16:07:04;5.03;;;0.90;;
44098;SDS011;29762;50.086;14.364;2023-04-03T16:12:24;4.28;;;0.93;;
44098;SDS011;29762;50.086;14.364;2023-04-03T16:17:44;7.10;;;1.15;;
44098;SDS011;29762;50.086;14.364;2023-04-03T16:23:03;6.32;;;1.15;;
44098;SDS011;29762;50.086;14.364;2023-04-03T16:28:23;3.63;;;0.80;;
44098;SDS011;29762;50.086;14.364;2023-04-03T16:33:43;2.63;;;0.80;;
44098;SDS011;29762;50.086;14.364;2023-04-03T16:39:03;2.08;;;0.80;;
44098;SDS011;29762;50.086;14.364;2023-04-03T16:44:23;3.03;;;0.80;;
44098;SDS011;29762;50.086;14.364;2023-04-03T16:49:42;1.55;;;0.80;;
44098;SDS011;29762;50.086;14.364;2023-04-03T16:55:02;2.42;;;0.80;;
44098;SDS011;29762;50.086;14.364;2023-04-03T17:00:22;1.30;;;0.75;;
44098;SDS011;29762;50.086;14.364;2023-04-03T17:05:42;5.13;;;1.00;;
44098;SDS011;29762;50.086;14.364;2023-04-03T17:11:02;3.03;;;0.85;;
44098;SDS011;29762;50.086;14.364;2023-04-03T17:16:22;3.55;;;0.90;;
44098;SDS011;29762;50.086;14.364;2023-04-03T17:21:43;1.83;;;0.80;;
44098;SDS011;29762;50.086;14.364;2023-04-03T17:27:04;12.85;;;0.95;;
44098;SDS011;29762;50.086;14.364;2023-04-03T17:32:24;5.85;;;1.25;;
44098;SDS011;29762;50.086;14.364;2023-04-03T17:37:44;3.30;;;1.10;;
44098;SDS011;29762;50.086;14.364;2023-04-03T17:43:04;2.90;;;0.77;;
44098;SDS011;29762;50.086;14.364;2023-04-03T17:48:24;1.27;;;0.75;;
44098;SDS011;29762;50.086;14.364;2023-04-03T17:53:45;2.78;;;0.80;;
44098;SDS011;29762;50.086;14.364;2023-04-03T17:59:06;1.65;;;0.60;;
44098;SDS011;29762;50.086;14.364;2023-04-03T18:04:26;1.48;;;0.80;;
44098;SDS011;29762;50.086;14.364;2023-04-03T18:09:49;3.05;;;0.70;;
44098;SDS011;29762;50.086;14.364;2023-04-03T18:15:09;1.00;;;0.70;;
44098;SDS011;29762;50.086;14.364;2023-04-03T18:20:29;1.70;;;0.90;;
44098;SDS011;29762;50.086;14.364;2023-04-03T18:25:49;1.20;;;0.80;;
44098;SDS011;29762;50.086;14.364;2023-04-03T18:31:09;2.10;;;0.90;;
44098;SDS011;29762;50.086;14.364;2023-04-03T18:36:28;3.88;;;1.00;;
44098;SDS011;29762;50.086;14.364;2023-04-03T18:41:48;4.28;;;1.10;;
44098;SDS011;29762;50.086;14.364;2023-04-03T18:47:08;3.38;;;1.05;;
44098;SDS011;29762;50.086;14.364;2023-04-03T18:52:27;4.97;;;1.27;;
44098;SDS011;29762;50.086;14.364;2023-04-03T18:57:47;4.00;;;1.13;;
44098;SDS011;29762;50.086;14.364;2023-04-03T19:03:08;3.55;;;1.10;;
44098;SDS011;29762;50.086;14.364;2023-04-03T19:08:29;3.80;;;1.30;;
44098;SDS011;29762;50.086;14.364;2023-04-03T19:13:48;1.80;;;0.80;;
44098;SDS011;29762;50.086;14.364;2023-04-03T19:19:08;2.15;;;1.00;;
44098;SDS011;29762;50.086;14.364;2023-04-03T19:24:27;2.55;;;0.90;;
44098;SDS011;29762;50.086;14.364;2023-04-03T19:29:49;1.92;;;0.98;;
44098;SDS011;29762;50.086;14.364;2023-04-03T19:35:09;2.03;;;0.95;;
44098;SDS011;29762;50.086;14.364;2023-04-03T19:40:29;3.15;;;1.10;;
44098;SDS011;29762;50.086;14.364;2023-04-03T19:45:50;3.20;;;1.20;;
44098;SDS011;29762;50.086;14.364;2023-04-03T19:51:10;2.65;;;1.02;;
44098;SDS011;29762;50.086;14.364;2023-04-03T19:56:30;3.70;;;1.08;;
44098;SDS011;29762;50.086;14.364;2023-04-03T20:01:50;1.80;;;0.80;;
44098;SDS011;29762;50.086;14.364;2023-04-03T20:07:09;2.80;;;1.20;;
44098;SDS011;29762;50.086;14.364;2023-04-03T20:12:29;2.60;;;1.10;;
44098;SDS011;29762;50.086;14.364;2023-04-03T20:17:48;3.22;;;1.20;;
44098;SDS011;29762;50.086;14.364;2023-04-03T20:23:09;4.32;;;1.17;;
44098;SDS011;29762;50.086;14.364;2023-04-03T20:28:30;3.63;;;1.35;;
44098;SDS011;29762;50.086;14.364;2023-04-03T20:33:50;3.15;;;1.42;;
44098;SDS011;29762;50.086;14.364;2023-04-03T20:39:09;2.30;;;1.20;;
44098;SDS011;29762;50.086;14.364;2023-04-03T20:44:29;6.25;;;1.50;;
44098;SDS011;29762;50.086;14.364;2023-04-03T20:49:49;5.50;;;1.60;;
44098;SDS011;29762;50.086;14.364;2023-04-03T20:55:10;4.13;;;1.73;;
44098;SDS011;29762;50.086;14.364;2023-04-03T21:00:30;4.20;;;1.48;;
44098;SDS011;29762;50.086;14.364;2023-04-03T21:22:36;4.05;;;1.50;;
44098;SDS011;29762;50.086;14.364;2023-04-03T21:28:01;3.97;;;1.52;;
44098;SDS011;29762;50.086;14.364;2023-04-03T21:33:22;3.45;;;1.10;;
44098;SDS011;29762;50.086;14.364;2023-04-03T21:38:41;3.30;;;1.60;;
44098;SDS011;29762;50.086;14.364;2023-04-03T21:44:05;2.40;;;1.30;;
44098;SDS011;29762;50.086;14.364;2023-04-03T21:49:25;2.40;;;1.02;;
44098;SDS011;29762;50.086;14.364;2023-04-03T21:54:45;3.15;;;1.30;;
44098;SDS011;29762;50.086;14.364;2023-04-03T22:00:05;1.80;;;1.23;;
44098;SDS011;29762;50.086;14.364;2023-04-03T22:05:30;2.08;;;1.30;;
44098;SDS011;29762;50.086;14.364;2023-04-03T22:10:50;2.25;;;1.20;;
44098;SDS011;29762;50.086;14.364;2023-04-03T22:16:11;3.08;;;1.45;;
44098;SDS011;29762;50.086;14.364;2023-04-03T22:21:30;3.20;;;1.38;;
44098;SDS011;29762;50.086;14.364;2023-04-03T22:26:51;2.63;;;1.08;;
44098;SDS011;29762;50.086;14.364;2023-04-03T22:32:11;2.25;;;1.30;;
44098;SDS011;29762;50.086;14.364;2023-04-03T22:37:31;2.25;;;1.27;;
44098;SDS011;29762;50.086;14.364;2023-04-03T22:42:50;1.90;;;1.10;;
44098;SDS011;29762;50.086;14.364;2023-04-03T22:48:10;2.92;;;1.30;;
44098;SDS011;29762;50.086;14.364;2023-04-03T22:53:30;2.97;;;1.10;;
44098;SDS011;29762;50.086;14.364;2023-04-03T22:58:49;2.13;;;1.17;;
44098;SDS011;29762;50.086;14.364;2023-04-03T23:04:09;3.05;;;1.23;;
44098;SDS011;29762;50.086;14.364;2023-04-03T23:09:28;2.55;;;1.30;;
44098;SDS011;29762;50.086;14.364;2023-04-03T23:14:48;1.55;;;1.10;;
44098;SDS011;29762;50.086;14.364;2023-04-03T23:20:07;2.55;;;1.10;;
44098;SDS011;29762;50.086;14.364;2023-04-03T23:25:27;1.90;;;1.10;;
44098;SDS011;29762;50.086;14.364;2023-04-03T23:30:47;2.30;;;1.10;;
44098;SDS011;29762;50.086;14.364;2023-04-03T23:36:07;2.50;;;1.13;;
44098;SDS011;29762;50.086;14.364;2023-04-03T23:41:27;1.85;;;1.10;;
44098;SDS011;29762;50.086;14.364;2023-04-03T23:46:46;1.90;;;1.10;;
44098;SDS011;29762;50.086;14.364;2023-04-03T23:52:05;1.80;;;1.20;;
44098;SDS011;29762;50.086;14.364;2023-04-03T23:57:25;1.83;;;1.00;;
